Brady, Montana
Current Conditions -  °F | °C
As of 4:53 PM on Monday 22 Dec 2014 (Local Time) from KGTF Reporting Station
Broken Clouds Broken Clouds  
Wind Chill: -4°   Ceiling: 8000
Heat Index:   Visibility: 10mi
Dew Point: -4°   Wind: 15mph
Humidity: 67%   Direction: 330°NNW
Pressure: 30.03"   Gusts: NA
Location:  48.03°N, 111.85°W
Report Text: KGTF 222353Z 33013KT 10SM BKN080 BKN090 02/M04 A3003 RMK AO2 SLP204 T00171039 10056 20017 53037
Loading
Personal Weather Stations






























Interactive Weather Map New forecast layout! Learn more

10-Day Weather Forecast

Advertisements
Track Severe Weather on mobile